KHKS/HKS METAR and TAF weather

Enter ICAO airport designator
Station Type Date Time Source
KHKS METAR 2022/01/27 23:53 UTC NOAA

KHKS 272353Z 34006KT 10SM CLR 10/M04 A3022 RMK AO2 SLP229 T01001039 10144 20100 53012


Station Type Date Time Source
KHKS Decoded METAR 2022/01/27 23:53 UTC NOAA

HAWKINS FIELD, MS, United States (KHKS) 32-20N 090-13W 108M
Jan 27, 2022 - 06:53 PM EST / 2022.01.27 2353 UTC
Wind: from the NNW (340 degrees) at 7 MPH (6 KT):0
Visibility: 10 mile(s):0
Sky conditions: clear
Temperature: 50.0 F (10.0 C)
Dew Point: 25.0 F (-3.9 C)
Relative Humidity: 37%
Pressure (altimeter): 30.22 in. Hg (1023 hPa)
Pressure tendency: 0.04 inches (1.2 hPa) higher than three hours ago
ob: KHKS 272353Z 34006KT 10SM CLR 10/M04 A3022 RMK AO2 SLP229 T01001039 10144 20100 53012
cycle: 0

Station Type Date Time Source
KHKS TAF 2022/01/27 18:27 UTC NOAA

TAF KHKS 271725Z 2718/2818 15003KT P6SM SKC
FM281400 34009KT P6SM OVC050

Example: see airport list